Time;durP1;ratioP1;P1;durP2;ratioP2;P2;SDS_P1;SDS_P2;PMS_P1;PMS_P2;Temp;Humidity;BMP_temperature;BMP_pressure;BME280_temperature;BME280_humidity;BME280_pressure;Samples;Min_cycle;Max_cycle;Signal;HPM_P1;HPM_P2
2022/06/11 00:00:45;;;;;;;4.90;2.10;;;;;;;20.97;56.94;102013.44;5116054;28;20036;-71
2022/06/11 00:03:12;;;;;;;3.67;1.60;;;;;;;20.97;56.98;102016.09;5116457;28;20016;-71
2022/06/11 00:05:37;;;;;;;4.88;1.75;;;;;;;20.97;56.85;102016.94;5116669;28;20102;-71
2022/06/11 00:08:04;;;;;;;4.07;1.95;;;;;;;20.97;56.94;102013.44;5115477;28;20160;-71
2022/06/11 00:10:32;;;;;;;3.97;1.70;;;;;;;20.95;57.02;102010.91;5116447;28;20028;-70
2022/06/11 00:12:58;;;;;;;4.65;1.98;;;;;;;20.96;57.14;102019.69;5116249;28;20464;-70
2022/06/11 00:15:23;;;;;;;4.85;2.20;;;;;;;20.96;56.94;102017.03;5115456;28;20019;-70
2022/06/11 00:17:49;;;;;;;3.10;1.60;;;;;;;20.96;57.15;102022.34;5116283;28;20080;-71
2022/06/11 00:20:14;;;;;;;4.50;1.92;;;;;;;20.96;57.26;102014.38;5116236;28;20429;-70
2022/06/11 00:22:41;;;;;;;6.25;1.92;;;;;;;20.96;57.04;102022.34;5115455;28;20024;-71
2022/06/11 00:25:07;;;;;;;4.95;1.80;;;;;;;20.95;57.31;102012.69;5115888;28;20106;-70
2022/06/11 00:27:33;;;;;;;4.45;1.70;;;;;;;20.94;56.86;102011.84;5115321;28;20035;-70
2022/06/11 00:29:58;;;;;;;3.80;1.75;;;;;;;20.93;57.15;102018.09;5116202;28;20023;-70
2022/06/11 00:32:24;;;;;;;4.18;1.63;;;;;;;20.95;57.07;102012.69;5115656;28;20527;-70
2022/06/11 00:34:49;;;;;;;4.10;1.77;;;;;;;20.95;57.27;102016.19;5113065;28;20036;-71
2022/06/11 00:37:17;;;;;;;3.10;1.67;;;;;;;20.95;57.08;102020.63;5115469;28;20054;-70
2022/06/11 00:39:47;;;;;;;4.18;1.85;;;;;;;20.93;57.13;102015.44;5115852;28;20077;-70
2022/06/11 00:42:20;;;;;;;5.45;1.50;;;;;;;20.93;57.00;102012.81;5114732;28;20024;-70
2022/06/11 00:45:32;;;;;;;4.20;1.60;;;;;;;20.92;57.06;102011.13;5116081;28;20062;-71
2022/06/11 00:48:04;;;;;;;4.93;1.60;;;;;;;20.92;56.99;102013.78;5115784;28;20453;-71
2022/06/11 00:50:38;;;;;;;4.15;1.60;;;;;;;20.93;57.00;102006.66;5114890;28;20543;-71
2022/06/11 00:53:14;;;;;;;4.07;1.70;;;;;;;20.93;56.87;102006.66;5115505;28;20032;-70
2022/06/11 00:55:42;;;;;;;3.30;1.77;;;;;;;20.91;56.96;101998.84;5114727;28;20071;-71
2022/06/11 00:58:21;;;;;;;4.22;1.90;;;;;;;20.92;56.97;102007.63;5115108;28;20077;-71
2022/06/11 01:00:52;;;;;;;3.55;1.75;;;;;;;20.92;56.81;101999.66;5115421;28;20024;-70
2022/06/11 01:03:21;;;;;;;2.95;1.50;;;;;;;20.91;56.92;102009.44;5114656;28;20027;-70
2022/06/11 01:05:55;;;;;;;3.75;1.80;;;;;;;20.91;56.87;102003.28;5115445;28;20016;-71
2022/06/11 01:08:39;;;;;;;3.97;1.70;;;;;;;20.91;56.94;102000.66;5115321;28;20028;-70
2022/06/11 01:11:20;;;;;;;3.40;1.50;;;;;;;20.90;56.85;101996.28;5114433;28;20038;-71
2022/06/11 01:14:14;;;;;;;4.72;2.00;;;;;;;20.90;56.79;101991.84;5115162;28;20466;-70
2022/06/11 01:16:56;;;;;;;4.38;1.85;;;;;;;20.89;56.78;101994.63;5115002;28;20031;-70
2022/06/11 01:19:33;;;;;;;3.25;1.63;;;;;;;20.89;56.86;101995.47;5115015;28;20134;-70
2022/06/11 01:22:20;;;;;;;4.43;1.70;;;;;;;20.89;56.84;101992.81;5115387;28;20030;-70
2022/06/11 01:25:20;;;;;;;4.57;1.52;;;;;;;20.88;56.92;101990.28;5113494;28;20031;-70
2022/06/11 01:27:57;;;;;;;3.38;1.50;;;;;;;20.89;56.95;101992.81;5114992;28;20027;-71
2022/06/11 01:30:33;;;;;;;4.10;1.80;;;;;;;20.88;56.79;101993.75;5114912;28;20035;-70
2022/06/11 01:33:10;;;;;;;3.00;1.58;;;;;;;20.87;56.86;101994.75;5114069;28;21055;-70
2022/06/11 01:35:53;;;;;;;3.13;1.85;;;;;;;20.87;56.99;101983.28;5115046;28;20153;-71
2022/06/11 01:38:33;;;;;;;4.18;1.83;;;;;;;20.87;56.98;101983.28;5113860;28;20108;-70
2022/06/11 01:41:33;;;;;;;3.47;1.60;;;;;;;20.86;56.85;101982.44;5114933;28;20062;-71
2022/06/11 01:44:04;;;;;;;3.92;1.80;;;;;;;20.87;56.85;101988.56;5070966;28;20066;-71
2022/06/11 01:46:42;;;;;;;4.20;1.60;;;;;;;20.86;56.82;101986.91;5113967;28;20030;-71
2022/06/11 01:49:25;;;;;;;3.45;1.83;;;;;;;20.85;56.95;101978.09;5114201;28;20028;-71
2022/06/11 01:52:15;;;;;;;2.90;1.50;;;;;;;20.84;56.83;101981.72;5114302;28;20028;-71
2022/06/11 01:55:06;;;;;;;2.90;1.50;;;;;;;20.85;56.95;101983.38;5114315;28;20509;-71
2022/06/11 01:57:53;;;;;;;3.67;1.70;;;;;;;20.84;56.82;101982.56;5114509;28;20077;-71
2022/06/11 02:00:28;;;;;;;3.33;1.60;;;;;;;20.85;56.78;101980.75;5113435;28;20034;-71
2022/06/11 02:03:19;;;;;;;12.50;2.10;;;;;;;20.84;56.93;101981.72;5114372;28;20031;-71
2022/06/11 02:06:06;;;;;;;4.53;1.60;;;;;;;20.83;56.78;101980.84;5114350;28;20032;-71
2022/06/11 02:08:50;;;;;;;4.25;1.55;;;;;;;20.83;56.90;101982.66;5114295;28;20130;-71
2022/06/11 02:11:22;;;;;;;3.70;1.73;;;;;;;20.83;56.93;101980.03;5113076;28;20026;-71
2022/06/11 02:13:55;;;;;;;4.40;1.80;;;;;;;20.82;56.79;101975.66;5113416;28;20735;-69
2022/06/11 02:16:46;;;;;;;4.13;1.55;;;;;;;20.82;56.67;101984.47;5113653;28;20059;-70
2022/06/11 02:19:18;;;;;;;4.10;1.80;;;;;;;20.82;56.91;101986.28;5113756;28;20024;-70
2022/06/11 02:21:55;;;;;;;3.50;1.75;;;;;;;20.81;57.03;101985.44;5113065;28;20374;-70
2022/06/11 02:24:31;;;;;;;5.18;1.70;;;;;;;20.81;56.77;101992.53;5113591;28;20157;-70
2022/06/11 02:27:01;;;;;;;2.85;1.50;;;;;;;20.81;56.97;101993.38;5113943;28;20020;-70
2022/06/11 02:29:27;;;;;;;3.45;1.75;;;;;;;20.81;56.84;101990.72;5113570;28;20024;-70
2022/06/11 02:31:57;;;;;;;4.57;1.60;;;;;;;20.80;56.80;101988.19;5113634;28;20027;-70
2022/06/11 02:34:24;;;;;;;4.20;1.80;;;;;;;20.81;56.84;102003.97;5112627;28;20074;-70
2022/06/11 02:36:57;;;;;;;3.60;1.73;;;;;;;20.80;56.85;102002.28;5113111;28;20078;-70
2022/06/11 02:39:25;;;;;;;5.72;1.77;;;;;;;20.80;56.75;102007.56;5113292;28;20492;-70
2022/06/11 02:41:51;;;;;;;4.15;1.65;;;;;;;20.79;56.91;102005.91;5112914;28;20073;-70
2022/06/11 02:44:17;;;;;;;4.55;1.70;;;;;;;20.80;56.70;102006.75;5113330;28;20034;-70
2022/06/11 02:46:43;;;;;;;3.28;1.67;;;;;;;20.79;56.96;102011.19;5113447;28;20024;-70
2022/06/11 02:49:25;;;;;;;4.10;1.90;;;;;;;20.79;56.76;102005.03;5112272;28;20065;-71
2022/06/11 02:51:54;;;;;;;4.30;1.48;;;;;;;20.77;56.67;102005.16;5113497;28;20466;-70
2022/06/11 02:54:21;;;;;;;3.53;1.45;;;;;;;20.78;56.70;102006.03;5113237;28;20023;-70
2022/06/11 02:56:49;;;;;;;3.97;1.52;;;;;;;20.79;56.79;102010.34;5112417;28;20034;-71
2022/06/11 02:59:15;;;;;;;3.25;1.58;;;;;;;20.78;56.67;102016.63;5113096;28;20026;-70
2022/06/11 03:01:42;;;;;;;3.58;1.60;;;;;;;20.77;56.70;102014.91;5112980;28;20463;-70
2022/06/11 03:04:10;;;;;;;3.75;1.83;;;;;;;20.78;56.76;102019.25;5112392;28;20023;-71
2022/06/11 03:06:40;;;;;;;4.50;1.50;;;;;;;20.77;56.78;102025.50;5113160;28;20481;-71
2022/06/11 03:09:07;;;;;;;4.30;1.60;;;;;;;20.77;56.61;102022.88;5112966;28;20355;-71
2022/06/11 03:11:33;;;;;;;3.38;1.45;;;;;;;20.77;56.56;102018.41;5112469;28;20027;-70
2022/06/11 03:13:59;;;;;;;6.72;1.70;;;;;;;20.76;56.55;102023.81;5112974;28;20020;-70
2022/06/11 03:16:24;;;;;;;3.17;1.42;;;;;;;20.76;56.54;102026.47;5111962;28;20027;-70
2022/06/11 03:18:50;;;;;;;3.17;1.45;;;;;;;20.75;56.60;102019.50;5113182;28;20019;-70
2022/06/11 03:21:15;;;;;;;3.58;1.63;;;;;;;20.75;56.67;102024.78;5112677;28;20051;-70
2022/06/11 03:23:41;;;;;;;3.33;1.55;;;;;;;20.75;56.58;102030.91;5112248;28;20102;-70
2022/06/11 03:26:07;;;;;;;3.35;1.55;;;;;;;20.75;56.55;102030.09;5112720;28;20102;-70
2022/06/11 03:28:32;;;;;;;3.70;1.50;;;;;;;20.74;56.65;102034.53;5112948;28;20062;-70
2022/06/11 03:30:57;;;;;;;5.43;1.73;;;;;;;20.74;56.58;102037.16;5112069;28;20040;-70
2022/06/11 03:33:24;;;;;;;2.92;1.45;;;;;;;20.73;56.71;102034.63;5112537;28;20024;-71
2022/06/11 03:35:51;;;;;;;3.13;1.50;;;;;;;20.75;56.41;102038.03;5112655;28;20032;-72
2022/06/11 03:38:18;;;;;;;3.78;1.67;;;;;;;20.72;56.58;102031.16;5111799;28;20034;-71
2022/06/11 03:40:44;;;;;;;3.88;1.70;;;;;;;20.73;56.68;102039.94;5112882;28;20053;-71
2022/06/11 03:43:09;;;;;;;3.13;1.60;;;;;;;20.73;56.56;102040.78;5112527;28;20031;-71
2022/06/11 03:45:35;;;;;;;3.00;1.40;;;;;;;20.73;56.63;102042.56;5111981;28;20027;-71
2022/06/11 03:48:01;;;;;;;3.60;1.58;;;;;;;20.71;56.82;102042.72;5112466;28;20028;-70
2022/06/11 03:50:33;;;;;;;4.15;1.55;;;;;;;20.71;56.35;102053.31;5112690;28;20019;-70
2022/06/11 03:53:02;;;;;;;3.08;1.50;;;;;;;20.71;56.60;102058.63;5111859;28;20020;-70
2022/06/11 03:55:29;;;;;;;2.97;1.63;;;;;;;20.72;56.60;102062.09;5112587;28;20031;-70
2022/06/11 03:57:56;;;;;;;2.90;1.45;;;;;;;20.71;56.65;102069.22;5112344;28;20027;-69
2022/06/11 04:03:10;;;;;;;3.35;1.42;;;;;;;20.72;56.83;102075.34;5112604;28;20390;-69
2022/06/11 04:05:37;;;;;;;6.15;1.35;;;;;;;20.71;56.68;102071.00;5111678;28;20484;-70
2022/06/11 04:08:09;;;;;;;3.38;1.60;;;;;;;20.70;56.76;102070.16;5112036;28;20028;-69
2022/06/11 04:10:34;;;;;;;2.78;1.40;;;;;;;20.71;56.71;102071.00;5112303;28;20147;-70
2022/06/11 04:13:00;;;;;;;3.70;1.40;;;;;;;20.71;56.81;102071.00;5111799;28;20443;-70
2022/06/11 04:15:25;;;;;;;5.30;1.50;;;;;;;20.70;56.88;102080.75;5112232;28;20117;-70
2022/06/11 04:17:53;;;;;;;3.88;1.70;;;;;;;20.71;56.90;102078.94;5112277;28;20023;-70
2022/06/11 04:20:18;;;;;;;3.95;1.77;;;;;;;20.69;56.80;102079.06;5111243;28;20019;-69
2022/06/11 04:22:44;;;;;;;4.15;1.35;;;;;;;20.70;56.70;102083.41;5112222;28;20427;-70
2022/06/11 04:25:14;;;;;;;2.55;1.30;;;;;;;20.70;56.93;102083.41;5111865;28;20035;-70
2022/06/11 04:27:40;;;;;;;3.15;1.45;;;;;;;20.69;56.72;102086.16;5111484;28;20026;-70
2022/06/11 04:30:07;;;;;;;3.45;1.30;;;;;;;20.70;56.68;102090.50;5112178;28;20154;-70
2022/06/11 04:32:32;;;;;;;3.30;1.48;;;;;;;20.70;56.62;102093.16;5112486;28;20028;-70
2022/06/11 04:34:58;;;;;;;2.95;1.50;;;;;;;20.68;56.64;102095.91;5114095;28;20027;-70
2022/06/11 04:37:26;;;;;;;7.38;1.50;;;;;;;20.69;56.66;102094.94;5115303;28;20130;-70
2022/06/11 04:40:00;;;;;;;2.92;1.52;;;;;;;20.67;56.81;102090.72;5115626;28;20362;-70
2022/06/11 04:42:27;;;;;;;2.92;1.35;;;;;;;20.68;56.63;102101.22;5115015;28;20026;-70
2022/06/11 04:44:52;;;;;;;2.90;1.38;;;;;;;20.68;56.64;102095.91;5115795;28;20028;-71
2022/06/11 04:47:21;;;;;;;3.55;1.60;;;;;;;20.69;56.79;102102.06;5115466;28;20481;-70
2022/06/11 04:49:48;;;;;;;3.80;1.70;;;;;;;20.69;56.66;102104.72;5114785;28;20020;-70
2022/06/11 04:52:14;;;;;;;3.28;1.40;;;;;;;20.68;56.75;102105.66;5115153;28;20039;-70
2022/06/11 04:54:39;;;;;;;3.08;1.48;;;;;;;20.68;56.59;102103.88;5115388;28;20103;-70
2022/06/11 04:57:05;;;;;;;2.53;1.35;;;;;;;20.68;56.78;102101.22;5114489;28;20039;-69
2022/06/11 04:59:32;;;;;;;4.13;2.10;;;;;;;20.68;56.69;102098.56;5115727;28;20027;-70
2022/06/11 05:01:58;;;;;;;3.20;1.50;;;;;;;20.67;56.72;102099.53;5114673;28;20127;-70
2022/06/11 05:04:26;;;;;;;4.07;1.23;;;;;;;20.68;56.94;102103.00;5115030;28;20098;-70
2022/06/11 05:06:54;;;;;;;3.33;1.42;;;;;;;20.65;56.75;102107.56;5115202;28;20028;-70
2022/06/11 05:09:22;;;;;;;4.20;1.50;;;;;;;20.68;56.77;102108.28;5114431;28;20163;-70
2022/06/11 05:11:49;;;;;;;2.78;1.48;;;;;;;20.67;56.98;102102.16;5115292;28;20348;-70
2022/06/11 05:14:15;;;;;;;7.28;1.60;;;;;;;20.67;56.70;102102.16;5114772;28;20020;-70
2022/06/11 05:16:43;;;;;;;4.05;1.85;;;;;;;20.67;56.75;102099.53;5114288;28;20027;-70
2022/06/11 05:19:11;;;;;;;5.13;1.52;;;;;;;20.66;56.74;102097.81;5114778;28;20020;-70
2022/06/11 05:21:39;;;;;;;2.40;1.15;;;;;;;20.69;56.71;102105.53;5115083;28;20016;-70
2022/06/11 05:24:05;;;;;;;3.25;1.33;;;;;;;20.68;56.46;102108.28;5114063;28;20020;-69
2022/06/11 05:26:42;;;;;;;8.23;1.20;;;;;;;20.67;56.80;102104.81;5114955;28;20041;-69
2022/06/11 05:29:10;;;;;;;4.22;1.40;;;;;;;20.69;56.69;102107.34;5114631;28;20020;-69
2022/06/11 05:31:36;;;;;;;3.45;1.25;;;;;;;20.66;56.68;102108.41;5114106;28;20027;-70
2022/06/11 05:34:01;;;;;;;3.10;1.30;;;;;;;20.67;56.85;102104.81;5114865;28;20027;-70
2022/06/11 05:36:36;;;;;;;5.85;1.40;;;;;;;20.69;56.67;102107.34;5114836;28;20135;-69
2022/06/11 05:39:01;;;;;;;5.97;1.42;;;;;;;20.69;56.73;102105.53;5113963;28;20099;-70
2022/06/11 05:41:26;;;;;;;3.30;1.35;;;;;;;20.67;56.79;102112.75;5114480;28;20024;-69
2022/06/11 05:43:52;;;;;;;3.35;1.48;;;;;;;20.70;56.79;102123.13;5114637;28;20068;-70
2022/06/11 05:46:22;;;;;;;5.35;1.27;;;;;;;20.70;56.71;102119.66;5113552;28;20069;-69
2022/06/11 05:48:58;;;;;;;3.45;1.52;;;;;;;20.70;56.55;102119.66;5114402;28;20023;-69
2022/06/11 05:51:30;;;;;;;5.15;1.58;;;;;;;20.70;56.38;102117.00;5112315;28;20046;-70
2022/06/11 05:53:58;;;;;;;3.33;1.50;;;;;;;20.70;56.44;102119.66;5114430;28;20091;-70
2022/06/11 05:56:24;;;;;;;4.40;1.67;;;;;;;20.71;56.31;102118.69;5113932;28;20378;-70
2022/06/11 05:58:58;;;;;;;2.70;1.30;;;;;;;20.71;56.30;102116.91;5113421;28;20026;-70
2022/06/11 06:01:27;;;;;;;4.88;1.35;;;;;;;20.72;56.33;102115.06;5114115;28;20023;-70
2022/06/11 06:03:52;;;;;;;5.03;1.38;;;;;;;20.72;56.33;102118.56;5114151;28;20494;-70
2022/06/11 06:06:17;;;;;;;4.50;1.38;;;;;;;20.71;56.24;102116.03;5113220;28;20031;-69
2022/06/11 06:08:44;;;;;;;3.50;1.40;;;;;;;20.69;56.21;102115.31;5114113;28;20035;-69
2022/06/11 06:11:09;;;;;;;6.45;1.40;;;;;;;20.72;56.15;102115.06;5113818;28;20351;-70
2022/06/11 06:13:47;;;;;;;3.30;1.55;;;;;;;20.73;55.75;102122.06;5113248;28;20107;-69
2022/06/11 06:16:20;;;;;;;3.40;1.38;;;;;;;20.73;55.98;102122.06;5113796;28;20027;-69
2022/06/11 06:18:47;;;;;;;5.20;1.38;;;;;;;20.72;55.94;102131.81;5113892;28;20030;-69
2022/06/11 06:21:14;;;;;;;2.95;1.30;;;;;;;20.72;55.68;102126.50;5112966;28;20396;-69
2022/06/11 06:23:40;;;;;;;3.75;1.30;;;;;;;20.72;55.52;102133.63;5113786;28;20019;-71
2022/06/11 06:26:08;;;;;;;2.65;1.13;;;;;;;20.72;55.80;102137.09;5113477;28;20363;-71
2022/06/11 06:28:34;;;;;;;4.20;1.40;;;;;;;20.73;55.74;102138.81;5113562;28;20030;-70
2022/06/11 06:31:04;;;;;;;6.45;1.20;;;;;;;20.73;55.59;102135.28;5113459;28;20047;-70
2022/06/11 06:33:30;;;;;;;4.53;1.60;;;;;;;20.73;55.42;102141.47;5112575;28;20422;-70
2022/06/11 06:36:00;;;;;;;4.32;1.30;;;;;;;20.72;55.55;102137.09;5113445;28;20024;-72
2022/06/11 06:38:26;;;;;;;4.50;1.30;;;;;;;20.72;55.44;102134.47;5113291;28;20367;-71
2022/06/11 06:40:52;;;;;;;3.22;1.35;;;;;;;20.73;55.41;102137.94;5112973;28;20027;-71
2022/06/11 06:43:18;;;;;;;3.92;1.52;;;;;;;20.72;55.40;102145.06;5113134;28;20030;-71
2022/06/11 06:45:52;;;;;;;4.30;1.55;;;;;;;20.73;55.38;102149.41;5113372;28;20051;-71
2022/06/11 06:48:18;;;;;;;3.85;1.20;;;;;;;20.73;55.51;102153.84;5112332;28;20023;-70
2022/06/11 06:50:44;;;;;;;5.32;1.30;;;;;;;20.74;55.51;102152.91;5113240;28;20137;-69
2022/06/11 06:53:10;;;;;;;2.83;1.10;;;;;;;20.73;55.34;102148.53;5113115;28;20106;-69
2022/06/11 06:55:35;;;;;;;6.15;1.27;;;;;;;20.74;55.33;102152.91;5112767;28;20023;-70
2022/06/11 06:58:00;;;;;;;3.42;1.20;;;;;;;20.74;55.42;102153.72;5112871;28;20497;-70
2022/06/11 07:00:28;;;;;;;3.40;1.30;;;;;;;20.72;55.52;102144.22;5113031;28;20043;-70
2022/06/11 07:02:54;;;;;;;2.80;1.20;;;;;;;20.72;55.37;102145.06;5112267;28;20082;-70
2022/06/11 07:05:21;;;;;;;4.15;1.30;;;;;;;20.63;55.29;102129.78;5112814;28;20028;-70
2022/06/11 07:07:48;;;;;;;3.65;1.20;;;;;;;20.73;55.25;102144.09;5112983;28;20474;-70
2022/06/11 07:10:14;;;;;;;5.18;1.70;;;;;;;20.73;55.26;102138.81;5112010;28;20043;-71
2022/06/11 07:12:39;;;;;;;3.90;1.70;;;;;;;20.75;55.44;102136.06;5113063;28;20020;-73
2022/06/11 07:15:06;;;;;;;5.83;1.20;;;;;;;20.76;56.45;102138.59;5112749;28;20039;-68
2022/06/11 07:17:42;;;;;;;4.47;1.30;;;;;;;20.79;58.10;102134.84;5111979;28;20473;-69
2022/06/11 07:20:15;;;;;;;4.32;1.50;;;;;;;20.81;58.91;102135.63;5112342;28;20505;-72
2022/06/11 07:22:56;;;;;;;4.68;1.55;;;;;;;20.82;59.18;102143.44;5112369;28;20065;-80
2022/06/11 07:25:22;;;;;;;4.47;1.60;;;;;;;20.82;59.59;102142.59;5112936;28;20054;-69
2022/06/11 07:27:55;;;;;;;4.75;1.48;;;;;;;20.81;60.82;102143.56;5112985;28;20472;-77
2022/06/11 07:30:24;;;;;;;5.90;1.95;;;;;;;20.79;61.16;102150.75;5111906;28;20058;-75
2022/06/11 07:32:56;;;;;;;10.13;1.92;;;;;;;20.75;60.95;102152.78;5112676;28;20479;-76
2022/06/11 07:35:24;;;;;;;7.63;1.77;;;;;;;20.72;60.97;102146.88;5112557;28;20556;-74
2022/06/11 07:37:51;;;;;;;7.10;2.10;;;;;;;20.65;60.63;102152.59;5111738;28;20402;-74
2022/06/11 07:40:21;;;;;;;7.30;2.10;;;;;;;20.62;60.90;102155.44;5112551;28;20024;-74
2022/06/11 07:42:46;;;;;;;8.98;2.17;;;;;;;20.59;60.88;102158.31;5112611;28;20467;-75
2022/06/11 07:45:18;;;;;;;9.02;2.38;;;;;;;20.56;61.31;102153.22;5111631;28;20028;-75
2022/06/11 07:47:55;;;;;;;7.68;2.30;;;;;;;20.55;61.44;102156.81;5112687;28;20479;-75
2022/06/11 07:50:34;;;;;;;9.70;2.17;;;;;;;20.52;61.85;102153.53;5112678;28;20074;-73
2022/06/11 07:53:00;;;;;;;8.38;2.17;;;;;;;20.51;61.68;102151.88;5112924;28;20185;-74
2022/06/11 07:55:28;;;;;;;10.50;2.33;;;;;;;20.49;61.68;102149.34;5112313;28;20026;-75
2022/06/11 07:57:54;;;;;;;7.47;2.25;;;;;;;20.45;61.43;102146.03;5111946;28;20458;-73
2022/06/11 08:00:23;;;;;;;7.18;2.10;;;;;;;20.46;61.56;102147.72;5112466;28;20493;-74
2022/06/11 08:02:51;;;;;;;9.50;2.42;;;;;;;20.46;61.85;102162.78;5112655;28;20110;-75
2022/06/11 08:05:17;;;;;;;11.43;3.20;;;;;;;20.45;61.88;102158.44;5111703;28;20024;-75
2022/06/11 08:07:42;;;;;;;7.50;2.20;;;;;;;20.45;62.36;102163.72;5112463;28;20099;-75
2022/06/11 08:10:09;;;;;;;9.05;2.85;;;;;;;20.43;61.86;102166.47;5115244;28;20363;-75
2022/06/11 08:12:37;;;;;;;8.77;2.58;;;;;;;20.43;61.86;102176.25;5115694;28;20077;-75
2022/06/11 08:15:03;;;;;;;9.85;2.55;;;;;;;20.42;62.04;102174.53;5116226;28;20020;-75
2022/06/11 08:17:30;;;;;;;10.35;2.78;;;;;;;20.42;62.01;102164.78;5116466;28;20038;-75
2022/06/11 08:19:56;;;;;;;10.90;2.33;;;;;;;20.43;62.21;102177.06;5115566;28;20032;-74
2022/06/11 08:22:21;;;;;;;10.82;2.83;;;;;;;20.41;62.51;102171.06;5116027;28;20082;-74
2022/06/11 08:24:48;;;;;;;10.90;2.83;;;;;;;20.42;62.25;102174.53;5116123;28;20016;-74
2022/06/11 08:27:13;;;;;;;8.10;2.53;;;;;;;20.40;62.73;102174.66;5115401;28;20026;-74
2022/06/11 08:29:38;;;;;;;10.48;2.60;;;;;;;20.40;62.44;102176.44;5116429;28;20098;-74
2022/06/11 08:32:05;;;;;;;8.63;2.45;;;;;;;20.37;62.65;102174.03;5115621;28;20031;-73
2022/06/11 08:34:35;;;;;;;8.98;2.75;;;;;;;20.38;62.40;102183.66;5115794;28;20028;-73
2022/06/11 08:37:01;;;;;;;9.35;2.60;;;;;;;20.37;62.13;102182.81;5115568;28;20039;-73
2022/06/11 08:39:26;;;;;;;8.80;2.53;;;;;;;20.38;62.32;102178.38;5114930;28;20097;-74
2022/06/11 08:41:51;;;;;;;9.43;2.70;;;;;;;20.39;63.07;102180.03;5115267;28;20366;-73
2022/06/11 08:44:17;;;;;;;9.73;3.17;;;;;;;20.38;63.30;102181.03;5115683;28;20350;-74
2022/06/11 08:46:45;;;;;;;12.10;2.72;;;;;;;20.39;63.02;102174.75;5115893;28;20454;-76
2022/06/11 08:49:35;;;;;;;13.80;2.70;;;;;;;20.39;63.12;102183.53;5114800;28;20019;-75
2022/06/11 08:52:21;;;;;;;8.68;2.30;;;;;;;20.40;63.15;102184.41;5115625;28;20374;-77
2022/06/11 08:54:47;;;;;;;9.10;2.83;;;;;;;20.39;63.49;102172.94;5115095;28;20394;-77
2022/06/11 08:57:49;;;;;;;10.65;2.67;;;;;;;20.39;63.10;102180.88;5115399;28;20023;-77
2022/06/11 09:00:22;;;;;;;12.98;2.72;;;;;;;20.40;63.09;102173.81;5115590;28;20035;-77
2022/06/11 09:03:11;;;;;;;10.57;2.60;;;;;;;20.40;62.79;102187.03;5114907;28;20020;-75
2022/06/11 09:05:42;;;;;;;10.77;2.53;;;;;;;20.39;63.09;102186.19;5115719;28;20057;-75
2022/06/11 09:08:26;;;;;;;10.35;2.83;;;;;;;20.39;63.66;102186.19;5114329;28;20034;-75
2022/06/11 09:10:58;;;;;;;7.65;2.17;;;;;;;20.40;64.77;102182.59;5115619;28;20106;-74
2022/06/11 09:13:57;;;;;;;7.50;2.35;;;;;;;20.40;65.00;102181.75;5114957;28;20031;-74
2022/06/11 09:16:44;;;;;;;9.90;2.63;;;;;;;20.40;64.76;102184.41;5114222;28;20077;-75
2022/06/11 09:19:31;;;;;;;9.65;2.63;;;;;;;20.40;64.54;102179.09;5114596;28;20535;-74
2022/06/11 09:22:16;;;;;;;9.85;2.65;;;;;;;20.40;63.50;102184.41;5115190;28;20062;-73
2022/06/11 09:25:01;;;;;;;9.88;2.50;;;;;;;20.38;63.57;102187.16;5115073;28;20024;-74
2022/06/11 09:27:39;;;;;;;10.68;2.78;;;;;;;20.39;63.49;102180.03;5115143;28;20034;-74
2022/06/11 09:30:18;;;;;;;11.60;2.72;;;;;;;20.38;62.90;102181.03;5114126;28;20020;-73
2022/06/11 09:33:02;;;;;;;8.55;2.47;;;;;;;20.38;62.08;102178.38;5114967;28;20024;-72
2022/06/11 09:35:43;;;;;;;9.38;2.47;;;;;;;20.37;62.27;102177.50;5115112;28;20067;-74
2022/06/11 09:38:32;;;;;;;12.77;3.78;;;;;;;20.38;61.77;102181.84;5113415;28;20043;-74
2022/06/11 09:41:14;;;;;;;10.45;2.92;;;;;;;20.37;61.70;102174.03;5114782;28;20081;-73
2022/06/11 09:44:09;;;;;;;10.43;2.47;;;;;;;20.38;61.36;102179.22;5114257;28;20020;-73
2022/06/11 09:46:55;;;;;;;9.82;2.80;;;;;;;20.38;62.20;102176.56;5114869;28;20035;-73
2022/06/11 09:49:49;;;;;;;11.07;2.75;;;;;;;20.40;62.72;102179.09;5115414;28;20099;-73
2022/06/11 09:52:36;;;;;;;9.00;2.27;;;;;;;20.41;62.54;102175.47;5113514;28;20053;-73
2022/06/11 09:55:21;;;;;;;9.07;2.42;;;;;;;20.41;63.01;102181.66;5114217;28;20497;-75
2022/06/11 09:58:14;;;;;;;10.02;2.85;;;;;;;20.41;61.06;102180.78;5113588;28;20470;-73
2022/06/11 10:00:44;;;;;;;8.13;2.20;;;;;;;20.42;61.89;102179.84;5114225;28;20031;-72
2022/06/11 10:03:38;;;;;;;14.00;3.30;;;;;;;20.43;62.35;102179.72;5113955;28;20024;-73
2022/06/11 10:06:17;;;;;;;12.10;2.87;;;;;;;20.42;62.24;102175.38;5112942;28;20031;-73
2022/06/11 10:09:04;;;;;;;10.40;2.60;;;;;;;20.43;62.39;102173.59;5114066;28;20024;-72
2022/06/11 10:12:16;;;;;;;10.93;2.72;;;;;;;20.44;62.37;102177.91;5113551;28;20030;-73
2022/06/11 10:14:54;;;;;;;9.00;2.55;;;;;;;20.43;62.28;102181.53;5031407;28;20045;-73
2022/06/11 10:17:51;;;;;;;9.13;2.95;;;;;;;20.44;62.09;102175.25;5056633;28;20035;-73
2022/06/11 10:20:31;;;;;;;8.80;2.20;;;;;;;20.44;61.92;102178.78;5112992;28;20039;-72
2022/06/11 10:23:04;;;;;;;8.63;2.53;;;;;;;20.44;61.52;102185.84;5113777;28;20470;-72
2022/06/11 10:25:35;;;;;;;13.00;3.33;;;;;;;20.44;61.47;102180.56;5113081;28;20161;-72
2022/06/11 10:28:25;;;;;;;9.43;2.47;;;;;;;20.45;61.32;102184.91;5113965;28;20068;-73
2022/06/11 10:31:06;;;;;;;10.38;2.40;;;;;;;20.44;61.12;102184.06;5113589;28;20034;-72
2022/06/11 10:33:40;;;;;;;9.10;2.50;;;;;;;20.45;61.19;102183.09;5112982;28;20028;-71
2022/06/11 10:36:08;;;;;;;;;;;;;;;20.46;59.70;102184.81;5113484;28;20249;-72
2022/06/11 10:38:40;;;;;;;9.57;2.08;;;;;;;20.48;58.64;102190.00;5113853;28;19912;-70
2022/06/11 10:41:08;;;;;;;8.02;2.05;;;;;;;20.48;59.30;102185.53;5112605;28;20023;-70
2022/06/11 10:43:40;;;;;;;9.45;2.10;;;;;;;20.47;59.97;102183.88;5113604;28;20107;-70
2022/06/11 10:46:09;;;;;;;8.55;2.30;;;;;;;20.48;60.17;102184.69;5113314;28;20035;-70
2022/06/11 10:48:37;;;;;;;9.25;2.47;;;;;;;20.48;60.89;102174.94;5112920;28;20024;-69
2022/06/11 10:51:12;;;;;;;8.55;2.63;;;;;;;20.50;60.57;102180.13;5113259;28;20023;-70
2022/06/11 10:53:49;;;;;;;7.97;2.00;;;;;;;20.50;60.15;102174.84;5112688;28;20115;-70
2022/06/11 10:56:20;;;;;;;9.25;2.80;;;;;;;20.51;59.42;102179.19;5112933;28;20032;-70
2022/06/11 10:58:48;;;;;;;8.98;2.90;;;;;;;20.53;58.99;102182.56;5113181;28;20028;-72
2022/06/11 11:01:22;;;;;;;9.25;2.40;;;;;;;20.54;58.48;102180.78;5112260;28;20386;-71
2022/06/11 11:04:05;;;;;;;9.00;2.03;;;;;;;20.54;58.04;102172.84;5113099;28;20476;-72
2022/06/11 11:06:34;;;;;;;7.77;1.97;;;;;;;20.55;57.38;102183.28;5113337;28;20059;-73
2022/06/11 11:09:05;;;;;;;7.60;2.05;;;;;;;20.57;57.21;102180.53;5112195;28;20038;-72
2022/06/11 11:11:39;;;;;;;8.85;1.95;;;;;;;20.56;57.22;102170.91;5113068;28;20103;-72
2022/06/11 11:14:13;;;;;;;9.73;2.60;;;;;;;20.57;57.21;102164.66;5112927;28;20112;-72
2022/06/11 11:16:40;;;;;;;7.43;2.50;;;;;;;20.58;56.61;102161.06;5112298;28;20348;-72
2022/06/11 11:19:20;;;;;;;6.78;2.00;;;;;;;20.58;57.25;102161.91;5112890;28;20034;-73
2022/06/11 11:22:03;;;;;;;10.90;2.28;;;;;;;20.60;57.05;102165.31;5094470;28;20099;-72
2022/06/11 11:24:34;;;;;;;7.63;2.20;;;;;;;20.62;57.38;102162.53;5112340;28;20130;-72
2022/06/11 11:27:06;;;;;;;9.85;2.70;;;;;;;20.60;56.57;102167.94;5112979;28;20019;-72
2022/06/11 11:29:38;;;;;;;8.95;2.63;;;;;;;20.62;56.93;102162.53;5112097;28;20024;-72
2022/06/11 11:32:24;;;;;;;8.75;2.80;;;;;;;20.63;56.96;102164.22;5112407;28;20023;-72
2022/06/11 11:34:50;;;;;;;8.52;2.10;;;;;;;20.64;56.86;102161.50;5113018;28;20024;-72
2022/06/11 11:37:31;;;;;;;9.60;2.22;;;;;;;20.65;56.34;102152.59;5111718;28;20471;-71
2022/06/11 11:40:02;;;;;;;8.48;2.70;;;;;;;20.67;56.79;102151.66;5112728;28;20020;-72
2022/06/11 11:42:37;;;;;;;12.57;2.80;;;;;;;20.68;57.14;102156.84;5113033;28;20034;-72
2022/06/11 11:45:40;;;;;;;8.07;2.30;;;;;;;20.68;56.71;102145.38;5116255;28;20023;-70
2022/06/11 11:48:06;;;;;;;10.23;3.00;;;;;;;20.68;56.53;102167.44;5116487;28;20038;-72
2022/06/11 11:50:39;;;;;;;7.45;1.88;;;;;;;20.70;56.24;102154.94;5115866;28;20106;-72